Etusivu
METAR-TAF:

METAR-TAF

Lentoasemat :

Ontario Municipal Airport

Ontario, Oregon, Yhdysvallat

Leveyspiiri: 44-01-10N, Pituuspiiri: 117-00-35W, korkeus merenpinnasta: 667 m

Tämänhetkinen sää

Tämä raportti tehtiin 31 minuuttia sitten, kello 16.53 UTC
Tuuli 3 kn pohjoisesta/koillisesta
Lämpötila 13°C
Kosteus 77%
Ilmanpaine 1004 hPa
Näkyvyys: 16.1 km
Pilvistä 5500 ft:n korkeudessa
heikkoa sadetta

METAR: KONO 191653Z AUTO 02003KT 10SM -RA OVC055 13/09 A2964 RMK AO2 RAE1558B23 SLP032 P0001 T01330094

Aika: 11:24 (17:24 UTC)


TAF: puuttuu

Säähavainnot ja -ennusteet yli 4000 lentoasemalta (METAR- ja TAF-raportit).

Käytössä olevat sääasemat on merkitty karttaan keltaisilla ja punaisilla pisteillä.

Aseta hiiri pisteen päälle nähdäksesi sääaseman nimen.

Klikkaa sitten nähdäksesi säähavainnot ja -ennusteet.

Kartan vaihtaminen: klikkaa mustalla rastilla varustettuja vihreitä pisteitä, niin voit zoomata sisään; viivalla varustettua vihreää pistettä, niin voit zoomata ulos tai vihreitä nuolia, niin pääset viereisille kartoille.


METAR-TAF: